Terminal Aerodrome Forecast
Issued by NWS

Home | Current Version | Previous Version | Text Only | Print | Product List | Glossary On
Versions: 1 2 3 4 5 6 7 8 9 10 11 12 13
644
FTUS44 KTSA 241120
TAFFYV
TAF
KFYV 241120Z 2412/2512 00000KT P6SM SCT026 BKN035
      TEMPO 2412/2416 BKN025
     FM241600 32012G18KT P6SM BKN050
     FM250100 VRB03KT P6SM SKC=

USA.gov is the U.S. government's official web portal to all federal, state and local government web resources and services.